Time;durP1;ratioP1;P1;durP2;ratioP2;P2;SDS_P1;SDS_P2;PMS_P1;PMS_P2;Temp;Humidity;BMP_temperature;BMP_pressure;BME280_temperature;BME280_humidity;BME280_pressure;Samples;Min_cycle;Max_cycle;Signal;HPM_P1;HPM_P2
2021/06/30 00:03:39;;;;;;;5.87;3.40;;;;;;;19.48;61.91;97566.75;8249586;28;20213;-71
2021/06/30 00:07:47;;;;;;;9.07;3.60;;;;;;;19.55;61.46;97565.22;8250109;28;20528;-70
2021/06/30 00:11:55;;;;;;;6.23;3.23;;;;;;;19.19;63.27;97556.97;8231074;28;20237;-70
2021/06/30 00:16:02;;;;;;;5.80;3.47;;;;;;;19.35;62.93;97545.97;8218011;29;20314;-70
2021/06/30 00:20:13;;;;;;;10.33;3.40;;;;;;;19.34;62.70;97542.53;8218123;29;20392;-70
2021/06/30 00:24:21;;;;;;;6.63;3.10;;;;;;;19.26;62.42;97555.47;8218287;29;20226;-70
2021/06/30 00:28:29;;;;;;;6.67;3.37;;;;;;;18.89;63.77;97550.75;8217999;29;20206;-70
2021/06/30 00:32:37;;;;;;;6.77;3.63;;;;;;;18.67;64.30;97540.38;8221524;28;20203;-70
2021/06/30 00:36:47;;;;;;;4.00;3.10;;;;;;;19.04;63.92;97547.75;8224293;29;20203;-69
2021/06/30 00:40:50;;;;;;;8.53;3.00;;;;;;;19.08;63.06;97536.91;8224419;29;20515;-69
2021/06/30 00:44:58;;;;;;;10.17;3.20;;;;;;;19.20;62.53;97537.63;8224584;29;20223;-69
2021/06/30 00:49:07;;;;;;;8.00;3.27;;;;;;;19.17;63.13;97543.13;8224202;29;20195;-71
2021/06/30 00:53:16;;;;;;;6.03;3.10;;;;;;;19.16;62.65;97551.97;8223951;29;20356;-70
2021/06/30 00:57:24;;;;;;;5.57;3.37;;;;;;;19.05;63.21;97552.88;8223257;29;20209;-71
2021/06/30 01:01:32;;;;;;;6.60;3.43;;;;;;;19.13;62.80;97545.22;8222905;29;20207;-71
2021/06/30 01:05:40;;;;;;;7.83;3.47;;;;;;;19.03;62.85;97543.50;8223243;29;20239;-70
2021/06/30 01:09:49;;;;;;;9.77;3.37;;;;;;;19.07;62.45;97543.09;8223320;28;20203;-70
2021/06/30 01:13:57;;;;;;;6.37;3.27;;;;;;;19.03;62.75;97535.63;8223750;29;20277;-70
2021/06/30 01:18:04;;;;;;;6.67;3.10;;;;;;;19.09;62.75;97529.84;8223585;29;20222;-70
2021/06/30 01:22:12;;;;;;;10.40;3.40;;;;;;;19.11;62.57;97528.75;8223401;29;20208;-70
2021/06/30 01:26:21;;;;;;;8.00;3.13;;;;;;;19.11;62.65;97522.66;8223199;29;20235;-70
2021/06/30 01:30:29;;;;;;;7.47;3.57;;;;;;;19.20;62.20;97518.44;8223151;29;20499;-70
2021/06/30 01:34:37;;;;;;;4.20;3.20;;;;;;;19.29;61.68;97501.88;8222319;29;20206;-70
2021/06/30 01:38:44;;;;;;;7.53;3.20;;;;;;;19.25;61.95;97505.75;8223199;29;20391;-70
2021/06/30 01:42:55;;;;;;;5.20;3.57;;;;;;;19.32;61.67;97498.97;8222712;28;20506;-70
2021/06/30 01:47:03;;;;;;;7.50;3.37;;;;;;;19.27;61.82;97498.56;8222478;29;20227;-70
2021/06/30 01:51:10;;;;;;;8.63;3.70;;;;;;;19.37;61.55;97488.91;8222736;29;20210;-70
2021/06/30 01:55:18;;;;;;;9.40;3.50;;;;;;;19.31;62.26;97492.91;8222467;29;20211;-70
2021/06/30 01:59:27;;;;;;;7.17;3.40;;;;;;;19.28;62.99;97487.91;8222088;29;20263;-70
2021/06/30 02:03:35;;;;;;;7.00;3.80;;;;;;;19.11;63.13;97481.53;8221825;29;20263;-70
2021/06/30 02:07:45;;;;;;;6.47;3.67;;;;;;;19.03;62.91;97485.78;8221901;29;20239;-70
2021/06/30 02:11:53;;;;;;;5.47;3.70;;;;;;;19.28;62.21;97487.91;8240797;28;20242;-70
2021/06/30 02:16:02;;;;;;;6.53;3.43;;;;;;;19.26;62.52;97486.38;8253974;28;20497;-71
2021/06/30 02:20:12;;;;;;;7.43;3.20;;;;;;;19.29;62.26;97502.69;8253809;28;20205;-70
2021/06/30 02:24:20;;;;;;;7.10;3.23;;;;;;;19.34;62.41;97502.28;8253714;28;20488;-71
2021/06/30 02:28:27;;;;;;;6.10;3.47;;;;;;;19.05;63.12;97505.66;8253481;28;20233;-70
2021/06/30 02:32:37;;;;;;;8.37;3.27;;;;;;;19.00;63.58;97512.25;8253379;28;20270;-70
2021/06/30 02:36:44;;;;;;;5.90;3.17;;;;;;;18.98;63.44;97525.50;8253424;28;20206;-70
2021/06/30 02:40:52;;;;;;;5.57;2.67;;;;;;;19.01;63.10;97527.06;8253555;28;20280;-71
2021/06/30 02:45:00;;;;;;;5.90;3.20;;;;;;;18.97;62.98;97523.84;8253390;28;20514;-70
2021/06/30 02:49:09;;;;;;;9.60;3.63;;;;;;;19.17;62.56;97535.25;8252816;28;20234;-70
2021/06/30 02:53:17;;;;;;;5.83;2.90;;;;;;;19.24;62.25;97538.19;8252118;28;20214;-71
2021/06/30 02:57:24;;;;;;;5.20;3.43;;;;;;;19.19;62.42;97527.25;8252449;28;20206;-70
2021/06/30 03:01:32;;;;;;;6.23;3.33;;;;;;;19.02;63.04;97520.81;8252595;28;20213;-70
2021/06/30 03:05:41;;;;;;;10.63;3.00;;;;;;;19.01;63.46;97525.25;8252401;28;20245;-70
2021/06/30 03:09:49;;;;;;;7.97;3.30;;;;;;;18.97;63.81;97530.91;8251899;28;20234;-70
2021/06/30 03:13:56;;;;;;;3.27;2.70;;;;;;;18.97;63.41;97536.97;8251734;28;20212;-70
2021/06/30 03:17:59;;;;;;;7.20;2.90;;;;;;;19.01;63.28;97533.13;8251709;28;20218;-70
2021/06/30 03:22:08;;;;;;;6.97;3.40;;;;;;;19.00;63.18;97535.88;8251802;28;20581;-70
2021/06/30 03:26:16;;;;;;;5.67;3.20;;;;;;;18.86;63.57;97547.56;8251791;28;20234;-70
2021/06/30 03:30:24;;;;;;;16.37;3.47;;;;;;;18.97;63.45;97552.72;8251646;28;20347;-70
2021/06/30 03:34:31;;;;;;;7.10;3.60;;;;;;;18.91;63.32;97548.81;8251656;28;20233;-70
2021/06/30 03:38:40;;;;;;;9.03;3.40;;;;;;;18.86;63.71;97551.00;8250558;28;20277;-70
2021/06/30 03:42:48;;;;;;;6.40;3.30;;;;;;;19.10;62.71;97552.50;8250359;28;20273;-70
2021/06/30 03:46:56;;;;;;;4.67;3.33;;;;;;;19.03;62.71;97554.81;8250277;28;20341;-70
2021/06/30 03:51:04;;;;;;;7.27;3.30;;;;;;;19.21;62.42;97546.31;8250749;28;20290;-71
2021/06/30 03:55:14;;;;;;;7.83;3.40;;;;;;;18.84;63.08;97550.31;8249913;28;20273;-70
2021/06/30 03:59:22;;;;;;;9.80;3.20;;;;;;;18.87;63.15;97555.31;8250119;28;20572;-70
2021/06/30 04:03:29;;;;;;;5.67;3.20;;;;;;;18.94;63.14;97552.97;8250096;28;20214;-70
2021/06/30 04:07:37;;;;;;;5.80;3.07;;;;;;;18.94;62.70;97552.97;8250013;28;20603;-70
2021/06/30 04:11:46;;;;;;;11.40;3.43;;;;;;;18.95;62.98;97558.09;8250219;28;20234;-70
2021/06/30 04:15:54;;;;;;;5.97;3.27;;;;;;;19.02;63.20;97560.19;8249920;28;20202;-70
2021/06/30 04:20:02;;;;;;;6.63;3.37;;;;;;;19.04;62.69;97563.50;8249507;28;20214;-70
2021/06/30 04:24:09;;;;;;;10.13;3.43;;;;;;;18.92;63.06;97565.38;8249571;28;20202;-69
2021/06/30 04:28:18;;;;;;;7.57;2.97;;;;;;;19.32;61.83;97568.06;8249626;28;20261;-70
2021/06/30 04:32:26;;;;;;;8.17;3.17;;;;;;;19.14;62.72;97573.09;8249646;28;20290;-70
2021/06/30 04:36:34;;;;;;;5.83;3.20;;;;;;;19.19;62.48;97580.59;8250154;28;20210;-70
2021/06/30 04:40:41;;;;;;;10.47;3.27;;;;;;;19.25;62.42;97581.88;8249078;28;20375;-70
2021/06/30 04:44:50;;;;;;;7.77;3.10;;;;;;;19.25;62.34;97579.25;8248749;28;20482;-70
2021/06/30 04:48:58;;;;;;;6.53;3.27;;;;;;;19.24;62.51;97581.00;8248739;28;20553;-70
2021/06/30 04:53:06;;;;;;;6.97;2.80;;;;;;;19.18;62.35;97586.78;8246896;28;20261;-70
2021/06/30 04:57:14;;;;;;;4.33;3.23;;;;;;;19.26;62.56;97586.13;8247754;28;20203;-70
2021/06/30 05:01:23;;;;;;;7.40;3.20;;;;;;;19.39;62.21;97576.25;8249179;28;20485;-70
2021/06/30 05:05:31;;;;;;;6.17;2.90;;;;;;;19.46;62.18;97572.13;8243136;28;20218;-70
2021/06/30 05:09:39;;;;;;;4.03;2.87;;;;;;;19.40;62.93;97563.94;8247589;28;20222;-70
2021/06/30 05:13:47;;;;;;;9.27;2.77;;;;;;;19.40;63.39;97561.31;8247984;28;20194;-71
2021/06/30 05:17:56;;;;;;;8.23;2.57;;;;;;;19.48;63.58;97558.88;8250248;28;20206;-71
2021/06/30 05:22:04;;;;;;;3.67;2.30;;;;;;;19.39;64.08;97563.13;8254239;28;20301;-71
2021/06/30 05:26:12;;;;;;;4.97;2.57;;;;;;;19.37;63.99;97572.91;8253510;28;20198;-70
2021/06/30 05:30:20;;;;;;;5.40;2.20;;;;;;;19.40;63.75;97582.31;8251316;28;20199;-71
2021/06/30 05:34:29;;;;;;;3.37;1.63;;;;;;;19.40;64.04;97582.31;8253542;28;20524;-71
2021/06/30 05:38:37;;;;;;;5.20;1.70;;;;;;;19.36;64.38;97580.91;8251022;28;20207;-71
2021/06/30 05:42:45;;;;;;;4.73;1.40;;;;;;;19.41;63.80;97578.75;8254171;28;20388;-71
2021/06/30 05:46:52;;;;;;;2.93;1.10;;;;;;;19.18;63.94;97575.47;8253969;28;20232;-71
2021/06/30 05:51:05;;;;;;;3.17;1.00;;;;;;;19.31;64.04;97574.28;8254000;28;20214;-71
2021/06/30 05:55:13;;;;;;;4.27;1.27;;;;;;;19.70;63.60;97577.03;8253835;28;20474;-71
2021/06/30 05:59:21;;;;;;;2.17;0.90;;;;;;;19.80;62.40;97576.22;8254175;28;20216;-71
2021/06/30 06:03:29;;;;;;;3.80;1.10;;;;;;;19.67;63.46;97579.09;8254021;28;20221;-72
2021/06/30 06:07:38;;;;;;;1.07;0.90;;;;;;;19.60;64.20;97577.97;8253351;28;20328;-70
2021/06/30 06:11:46;;;;;;;1.50;0.83;;;;;;;19.67;63.80;97572.03;8253321;28;20292;-71
2021/06/30 06:15:54;;;;;;;2.10;1.00;;;;;;;19.79;63.88;97570.16;8253159;28;20208;-71
2021/06/30 06:20:02;;;;;;;6.73;1.30;;;;;;;19.77;64.17;97573.91;8253484;28;20374;-71
2021/06/30 06:24:06;;;;;;;2.97;1.07;;;;;;;19.78;64.26;97573.75;8252775;28;20495;-71
2021/06/30 06:28:15;;;;;;;2.20;1.00;;;;;;;19.71;64.16;97572.59;8250876;28;20265;-71
2021/06/30 06:32:23;;;;;;;3.80;1.00;;;;;;;19.63;64.32;97568.03;8251221;28;20201;-71
2021/06/30 06:36:26;;;;;;;2.97;0.90;;;;;;;19.64;63.99;97566.22;8251387;28;20564;-70
2021/06/30 06:40:35;;;;;;;1.33;0.70;;;;;;;19.91;63.48;97562.97;8248497;28;20198;-70
2021/06/30 06:44:45;;;;;;;1.73;0.70;;;;;;;19.71;63.37;97570.81;8251234;28;20199;-70
2021/06/30 06:48:47;;;;;;;2.90;0.70;;;;;;;19.68;63.08;97575.50;8251180;28;20218;-70
2021/06/30 06:52:55;;;;;;;1.77;0.80;;;;;;;19.84;63.43;97580.28;8246629;28;20258;-71
2021/06/30 06:57:05;;;;;;;3.80;0.60;;;;;;;19.69;63.06;97566.66;8250854;28;20203;-71
2021/06/30 07:01:13;;;;;;;2.63;0.50;;;;;;;19.70;62.71;97576.19;8248715;28;20195;-71
2021/06/30 07:05:16;;;;;;;4.10;0.77;;;;;;;19.53;62.58;97581.13;8251915;28;20240;-70
2021/06/30 07:09:18;;;;;;;2.03;0.50;;;;;;;19.51;63.07;97587.47;8251256;28;20234;-70
2021/06/30 07:13:27;;;;;;;1.93;0.60;;;;;;;19.60;62.93;97589.28;8251157;28;20313;-71
2021/06/30 07:17:36;;;;;;;3.57;0.70;;;;;;;19.57;63.60;97592.19;8251044;28;20206;-71
2021/06/30 07:21:43;;;;;;;2.13;0.80;;;;;;;19.78;63.26;97586.91;8251241;28;20212;-71
2021/06/30 07:25:51;;;;;;;1.10;0.80;;;;;;;19.84;63.28;97594.22;8251411;28;20230;-70
2021/06/30 07:30:00;;;;;;;1.60;0.77;;;;;;;19.89;62.95;97588.56;8251810;28;20230;-71
2021/06/30 07:34:08;;;;;;;1.57;0.73;;;;;;;19.96;62.96;97594.13;8251166;28;20226;-70
2021/06/30 07:38:11;;;;;;;1.23;0.80;;;;;;;19.90;62.38;97585.81;8249973;28;20232;-70
2021/06/30 07:42:19;;;;;;;3.43;0.90;;;;;;;19.75;62.57;97589.78;8248179;28;20487;-71
2021/06/30 07:46:28;;;;;;;1.43;0.70;;;;;;;19.67;62.49;97582.53;8248703;28;20202;-70
2021/06/30 07:50:31;;;;;;;2.67;0.90;;;;;;;20.02;61.86;97578.63;8249727;28;20229;-71
2021/06/30 07:54:34;;;;;;;1.13;0.83;;;;;;;20.19;61.66;97589.44;8249919;28;20194;-70
2021/06/30 07:58:37;;;;;;;1.40;0.77;;;;;;;20.28;61.06;97599.94;8249814;28;20203;-70
2021/06/30 08:02:41;;;;;;;7.13;1.30;;;;;;;21.13;61.88;97599.31;8249577;28;20232;-72
2021/06/30 08:06:44;;;;;;;3.77;0.90;;;;;;;21.97;57.87;97593.94;8249978;28;20234;-71
2021/06/30 08:10:47;;;;;;;7.20;0.70;;;;;;;22.74;57.76;97599.59;8250008;28;20238;-71
2021/06/30 08:14:49;;;;;;;1.70;0.87;;;;;;;22.22;55.61;97600.28;8250256;28;20220;-72
2021/06/30 08:18:54;;;;;;;2.07;0.83;;;;;;;22.34;57.55;97606.19;8250379;28;20246;-72
2021/06/30 08:22:56;;;;;;;4.33;1.03;;;;;;;21.91;55.83;97612.16;8250327;28;20297;-71
2021/06/30 08:27:00;;;;;;;2.77;0.70;;;;;;;22.18;53.28;97598.94;8250382;28;20281;-70
2021/06/30 08:31:03;;;;;;;3.53;1.00;;;;;;;22.91;53.96;97616.38;8249917;28;20608;-71
2021/06/30 08:35:09;;;;;;;8.90;1.10;;;;;;;22.86;54.69;97609.91;8249903;28;20202;-71
2021/06/30 08:39:12;;;;;;;5.13;0.90;;;;;;;22.98;54.32;97601.59;8250417;28;20524;-73
2021/06/30 08:43:15;;;;;;;4.30;0.60;;;;;;;22.42;55.04;97600.97;8250359;28;20202;-76
2021/06/30 08:47:19;;;;;;;1.80;0.50;;;;;;;21.77;53.74;97609.03;8249764;28;20203;-73
2021/06/30 08:51:25;;;;;;;5.80;0.73;;;;;;;22.11;54.07;97597.88;8249771;28;20198;-72
2021/06/30 08:55:28;;;;;;;3.63;0.80;;;;;;;21.99;55.32;97614.88;8255889;28;20209;-72
2021/06/30 08:59:31;;;;;;;3.37;0.50;;;;;;;21.54;55.02;97623.59;8256032;28;20209;-72
2021/06/30 09:03:40;;;;;;;2.20;0.50;;;;;;;22.21;52.46;97614.44;8255379;28;20209;-71
2021/06/30 09:07:44;;;;;;;4.90;0.90;;;;;;;22.53;53.71;97604.38;8254519;28;20222;-72
2021/06/30 09:11:54;;;;;;;5.50;0.70;;;;;;;22.16;52.05;97600.91;8254604;28;20234;-72
2021/06/30 09:15:58;;;;;;;3.77;0.80;;;;;;;22.98;51.46;97604.22;8255201;28;20380;-72
2021/06/30 09:20:04;;;;;;;3.90;0.60;;;;;;;22.93;49.80;97606.50;8255279;28;20238;-72
2021/06/30 09:24:12;;;;;;;10.27;0.70;;;;;;;22.98;50.64;97616.56;8255510;28;20203;-72
2021/06/30 09:28:17;;;;;;;3.30;0.60;;;;;;;23.18;49.65;97620.72;8254878;28;20232;-71
2021/06/30 09:32:20;;;;;;;2.50;0.50;;;;;;;23.94;46.43;97616.44;8255540;28;20472;-72
2021/06/30 09:36:25;;;;;;;1.23;0.40;;;;;;;23.05;49.33;97620.28;8255036;28;20202;-71
2021/06/30 09:40:45;;;;;;;4.33;0.60;;;;;;;23.50;48.83;97627.16;8254744;28;20217;-72
2021/06/30 09:44:48;;;;;;;1.83;0.40;;;;;;;23.00;46.57;97612.00;8255054;28;20212;-71
2021/06/30 09:48:55;;;;;;;0.50;0.30;;;;;;;22.87;48.66;97620.31;8254499;28;20313;-71
2021/06/30 09:52:58;;;;;;;3.97;0.40;;;;;;;22.77;49.80;97623.06;8254140;28;20270;-72
2021/06/30 09:57:06;;;;;;;1.40;0.37;;;;;;;22.49;49.48;97622.31;8253689;28;20264;-71
2021/06/30 10:01:19;;;;;;;1.90;0.40;;;;;;;22.97;48.37;97618.41;8253869;28;20216;-71
2021/06/30 10:05:30;;;;;;;4.33;0.70;;;;;;;22.80;48.81;97612.16;8253866;28;20229;-71
2021/06/30 10:09:33;;;;;;;2.00;0.50;;;;;;;23.31;48.23;97604.44;8253240;28;20234;-70
2021/06/30 10:13:38;;;;;;;1.80;0.40;;;;;;;24.59;43.92;97599.03;8221552;29;20220;-71
2021/06/30 10:17:40;;;;;;;4.63;0.60;;;;;;;24.89;45.03;97589.59;8221827;29;20206;-71
2021/06/30 10:21:43;;;;;;;2.77;0.50;;;;;;;25.16;43.16;97596.31;8220697;29;20214;-71
2021/06/30 10:25:46;;;;;;;4.20;0.80;;;;;;;24.00;43.02;97599.94;8220386;29;20204;-74
2021/06/30 10:29:54;;;;;;;1.17;0.70;;;;;;;23.48;44.42;97601.88;8220239;29;20241;-75
2021/06/30 10:33:59;;;;;;;1.50;0.50;;;;;;;24.03;43.32;97595.31;8188300;29;20385;-75
2021/06/30 10:38:03;;;;;;;1.87;0.40;;;;;;;25.15;41.60;97605.28;8218382;29;20211;-74
2021/06/30 10:42:30;;;;;;;1.60;0.50;;;;;;;24.92;41.16;97601.66;8218914;29;20408;-75
2021/06/30 10:46:34;;;;;;;0.30;0.30;;;;;;;25.17;42.81;97600.63;8217508;29;20202;-74
2021/06/30 10:50:42;;;;;;;1.17;0.33;;;;;;;25.01;42.33;97595.34;8218636;29;20290;-74
2021/06/30 10:54:46;;;;;;;1.90;0.30;;;;;;;23.99;42.87;97592.19;8219251;29;20488;-74
2021/06/30 10:59:02;;;;;;;1.57;0.30;;;;;;;23.97;42.09;97587.03;8219535;29;20207;-75
2021/06/30 11:03:27;;;;;;;3.70;0.50;;;;;;;24.67;41.06;97590.25;8219163;29;20223;-76
2021/06/30 11:07:33;;;;;;;3.10;0.40;;;;;;;24.92;41.23;97594.56;8217971;29;20223;-76
2021/06/30 11:11:55;;;;;;;0.93;0.40;;;;;;;24.14;41.28;97587.91;8218385;28;20403;-74
2021/06/30 11:15:57;;;;;;;1.13;0.50;;;;;;;23.92;42.51;97580.59;8217924;28;20210;-74
2021/06/30 11:20:43;;;;;;;0.43;0.40;;;;;;;23.80;43.06;97578.25;8217973;29;20207;-73
2021/06/30 11:24:47;;;;;;;1.00;0.40;;;;;;;23.40;43.97;97576.25;8218109;29;20203;-75
2021/06/30 11:28:50;;;;;;;1.53;0.37;;;;;;;23.83;43.35;97574.44;8217775;29;20235;-75
2021/06/30 11:32:53;;;;;;;11.60;1.70;;;;;;;24.29;45.80;97579.31;8218263;29;20207;-72
2021/06/30 11:36:58;;;;;;;8.23;1.30;;;;;;;24.49;43.40;97579.84;8218383;29;20203;-71
2021/06/30 11:41:05;;;;;;;1.70;0.60;;;;;;;24.21;42.93;97564.25;8218122;29;20210;-71
2021/06/30 11:45:18;;;;;;;6.90;1.00;;;;;;;24.19;45.86;97566.25;8218080;29;20210;-72
2021/06/30 11:49:21;;;;;;;8.00;1.30;;;;;;;23.91;45.40;97568.34;8218223;29;20416;-72
2021/06/30 11:53:46;;;;;;;5.40;0.73;;;;;;;23.66;45.42;97567.41;8217922;29;20203;-73
2021/06/30 11:57:53;;;;;;;4.60;1.00;;;;;;;23.28;46.18;97570.41;8218088;29;20228;-72
2021/06/30 12:01:56;;;;;;;5.60;0.90;;;;;;;22.98;44.67;97571.69;8218144;29;20524;-71
2021/06/30 12:05:58;;;;;;;3.17;0.80;;;;;;;23.19;47.40;97571.38;8218405;29;20390;-72
2021/06/30 12:10:04;;;;;;;4.57;0.80;;;;;;;23.23;45.00;97562.97;8221502;28;20315;-71
2021/06/30 12:14:08;;;;;;;2.60;0.50;;;;;;;22.80;44.15;97562.03;8249433;28;20209;-71
2021/06/30 12:18:12;;;;;;;4.17;0.90;;;;;;;23.26;45.36;97568.91;8249280;28;20228;-71
2021/06/30 12:22:20;;;;;;;11.73;1.13;;;;;;;23.27;46.15;97571.41;8249222;28;20209;-74
2021/06/30 12:26:24;;;;;;;7.83;0.97;;;;;;;23.17;46.66;97578.59;8249551;28;20205;-69
2021/06/30 12:30:29;;;;;;;4.13;0.80;;;;;;;23.00;46.00;97567.13;8255643;28;20225;-70
2021/06/30 12:34:32;;;;;;;5.37;0.70;;;;;;;22.88;46.78;97565.69;8256517;28;20275;-70
2021/06/30 12:38:34;;;;;;;3.60;0.70;;;;;;;23.31;44.88;97554.25;8255484;28;20206;-70
2021/06/30 12:42:51;;;;;;;2.87;0.50;;;;;;;23.49;44.50;97553.31;8255169;28;20430;-72
2021/06/30 12:47:08;;;;;;;4.27;0.77;;;;;;;23.32;44.06;97553.28;8254366;28;20385;-71
2021/06/30 12:51:13;;;;;;;3.23;0.60;;;;;;;23.40;46.41;97560.41;8253904;28;20232;-70
2021/06/30 12:55:16;;;;;;;6.50;0.50;;;;;;;24.02;43.09;97552.16;8254734;28;20394;-69
2021/06/30 12:59:21;;;;;;;1.93;0.60;;;;;;;24.59;42.11;97543.44;8254601;28;20202;-70
2021/06/30 13:03:24;;;;;;;4.77;0.87;;;;;;;24.56;41.73;97554.34;8254952;28;20221;-69
2021/06/30 13:07:38;;;;;;;11.70;1.40;;;;;;;24.70;40.93;97543.09;8254723;28;20235;-72
2021/06/30 13:11:41;;;;;;;5.37;1.03;;;;;;;24.44;40.87;97543.25;8254761;28;20397;-70
2021/06/30 13:15:45;;;;;;;5.27;0.60;;;;;;;24.40;41.46;97545.41;8255177;28;20222;-69
2021/06/30 13:19:51;;;;;;;7.03;1.13;;;;;;;23.98;42.62;97534.97;8254740;28;20300;-69
2021/06/30 13:23:58;;;;;;;4.17;0.97;;;;;;;23.67;44.81;97542.66;8254428;28;20206;-68
2021/06/30 13:28:06;;;;;;;1.10;0.50;;;;;;;23.15;45.21;97548.88;8254814;28;20493;-68
2021/06/30 13:36:46;;;;;;;0.40;0.40;;;;;;;22.78;44.96;97557.88;8253879;28;20216;-68
2021/06/30 13:40:50;;;;;;;5.63;1.00;;;;;;;22.65;45.00;97558.28;8253420;28;20519;-69
2021/06/30 13:44:58;;;;;;;2.83;0.60;;;;;;;23.08;43.95;97545.22;8253646;28;20201;-68
2021/06/30 13:49:02;;;;;;;4.53;0.70;;;;;;;23.17;44.64;97538.97;8253960;28;20201;-71
2021/06/30 13:53:06;;;;;;;5.63;0.80;;;;;;;22.84;42.96;97536.16;8253739;28;20517;-68
2021/06/30 13:57:09;;;;;;;2.37;0.40;;;;;;;23.74;39.46;97541.00;8253659;28;20205;-68
2021/06/30 14:01:13;;;;;;;1.97;0.67;;;;;;;24.25;40.02;97536.47;8253664;28;20204;-67
2021/06/30 14:05:17;;;;;;;2.93;0.30;;;;;;;23.47;37.77;97540.25;8253751;28;20221;-68
2021/06/30 14:09:21;;;;;;;6.63;0.70;;;;;;;23.84;39.99;97546.19;8251265;28;20387;-72
2021/06/30 14:13:24;;;;;;;1.53;0.37;;;;;;;23.73;39.27;97537.53;8253345;28;20230;-73
2021/06/30 14:17:27;;;;;;;0.50;0.20;;;;;;;23.64;39.09;97527.13;8254003;28;20228;-74
2021/06/30 14:21:31;;;;;;;5.80;0.67;;;;;;;24.06;38.07;97526.22;8253984;28;20493;-72
2021/06/30 14:25:34;;;;;;;0.83;0.40;;;;;;;23.51;39.86;97517.00;8252563;28;20201;-72
2021/06/30 14:29:37;;;;;;;0.63;0.30;;;;;;;23.47;41.16;97519.13;8251942;28;20202;-73
2021/06/30 14:33:40;;;;;;;0.93;0.27;;;;;;;23.97;38.89;97520.09;8252027;28;20339;-72
2021/06/30 14:37:45;;;;;;;0.40;0.20;;;;;;;24.23;37.12;97519.94;8249374;28;20488;-69
2021/06/30 14:41:48;;;;;;;0.67;0.20;;;;;;;24.44;38.27;97524.72;8251882;28;20210;-70
2021/06/30 14:45:53;;;;;;;1.10;0.40;;;;;;;24.38;38.41;97530.69;8252082;28;20481;-70
2021/06/30 14:49:56;;;;;;;0.37;0.30;;;;;;;24.52;37.08;97524.78;8250702;28;20309;-69
2021/06/30 14:54:00;;;;;;;2.00;0.33;;;;;;;24.15;38.96;97523.41;8251074;28;20201;-70
2021/06/30 14:58:03;;;;;;;2.00;0.50;;;;;;;24.66;38.64;97519.78;8251176;28;20303;-69
2021/06/30 15:02:07;;;;;;;0.70;0.27;;;;;;;24.92;38.92;97512.47;8248717;28;20210;-69
2021/06/30 15:06:10;;;;;;;4.33;0.50;;;;;;;24.37;40.13;97521.13;8250899;28;20280;-68
2021/06/30 15:10:15;;;;;;;4.23;0.30;;;;;;;24.24;39.98;97508.38;8250619;28;20245;-70
2021/06/30 15:14:17;;;;;;;1.27;0.40;;;;;;;24.72;39.14;97503.22;8250582;28;20197;-69
2021/06/30 15:18:21;;;;;;;1.47;0.40;;;;;;;25.02;38.69;97514.91;8250421;28;20203;-71
2021/06/30 15:22:24;;;;;;;2.03;0.40;;;;;;;24.31;39.01;97500.59;8250233;28;20228;-69
2021/06/30 15:26:28;;;;;;;3.10;0.40;;;;;;;24.34;38.51;97501.09;8250250;28;20216;-69
2021/06/30 15:30:31;;;;;;;2.03;0.43;;;;;;;23.91;39.06;97507.53;8250584;28;20233;-69
2021/06/30 15:34:34;;;;;;;1.03;0.30;;;;;;;23.53;39.31;97507.09;8250475;28;20202;-67
2021/06/30 15:38:37;;;;;;;1.80;0.37;;;;;;;23.39;39.98;97509.34;8250306;28;20221;-68
2021/06/30 15:42:43;;;;;;;1.30;0.40;;;;;;;23.80;40.05;97504.22;8249966;28;20210;-68
2021/06/30 15:46:46;;;;;;;3.63;0.40;;;;;;;23.60;41.04;97498.34;8249047;28;20257;-68
2021/06/30 15:50:49;;;;;;;1.20;0.40;;;;;;;23.38;41.74;97510.38;8249009;28;20291;-69
2021/06/30 15:54:52;;;;;;;2.93;0.40;;;;;;;23.54;41.44;97509.56;8248674;28;20402;-70
2021/06/30 15:58:59;;;;;;;1.87;0.40;;;;;;;23.38;39.82;97504.22;8246398;28;20482;-71
2021/06/30 16:03:03;;;;;;;1.37;0.40;;;;;;;23.30;39.74;97498.94;8248472;28;20244;-69
2021/06/30 16:07:06;;;;;;;1.97;0.47;;;;;;;23.17;41.31;97505.50;8248858;28;20220;-69
2021/06/30 16:11:09;;;;;;;4.33;0.50;;;;;;;23.59;40.48;97517.03;8248751;28;20248;-70
2021/06/30 16:15:16;;;;;;;2.47;0.50;;;;;;;23.52;40.55;97516.84;8248753;28;20386;-70
2021/06/30 16:19:39;;;;;;;3.07;0.43;;;;;;;23.43;42.01;97513.31;8248969;28;20212;-70
2021/06/30 16:23:41;;;;;;;1.73;0.50;;;;;;;23.08;41.55;97529.38;8246964;28;20214;-70
2021/06/30 16:27:45;;;;;;;0.30;0.30;;;;;;;22.83;41.64;97530.03;8249448;28;20213;-69
2021/06/30 16:31:51;;;;;;;1.33;0.33;;;;;;;22.59;43.14;97540.44;8246607;28;20304;-70
2021/06/30 16:35:55;;;;;;;2.20;0.30;;;;;;;22.55;43.04;97549.66;8249296;28;20205;-67
2021/06/30 16:39:57;;;;;;;0.63;0.33;;;;;;;22.32;42.97;97546.69;8248482;28;20280;-69
2021/06/30 16:44:02;;;;;;;0.30;0.30;;;;;;;22.01;43.19;97554.94;8248010;28;20203;-70
2021/06/30 16:48:07;;;;;;;0.30;0.30;;;;;;;21.66;42.59;97573.16;8245674;28;20277;-70
2021/06/30 16:52:10;;;;;;;0.40;0.30;;;;;;;21.61;42.87;97572.81;8247299;28;20452;-70
2021/06/30 16:56:13;;;;;;;1.83;0.30;;;;;;;21.76;42.68;97564.38;8247138;28;20298;-71
2021/06/30 17:00:17;;;;;;;0.50;0.40;;;;;;;21.59;43.85;97568.63;8247950;28;20350;-70
2021/06/30 17:04:21;;;;;;;0.20;0.20;;;;;;;21.79;42.77;97574.63;8247690;28;20197;-70
2021/06/30 17:08:24;;;;;;;0.20;0.20;;;;;;;21.52;42.48;97563.16;8245955;28;20225;-68
2021/06/30 17:12:27;;;;;;;0.30;0.30;;;;;;;21.33;43.59;97565.84;8247201;28;20233;-68
2021/06/30 17:16:31;;;;;;;4.50;0.80;;;;;;;21.57;45.07;97575.88;8254020;28;20208;-70
2021/06/30 17:20:35;;;;;;;0.30;0.20;;;;;;;21.49;45.08;97568.69;8254370;28;20230;-68
2021/06/30 17:24:38;;;;;;;2.00;0.30;;;;;;;21.41;45.50;97572.03;8254642;28;20363;-68
2021/06/30 17:28:41;;;;;;;1.07;0.40;;;;;;;21.44;46.24;97570.97;8254076;28;20373;-67
2021/06/30 17:32:47;;;;;;;0.70;0.33;;;;;;;21.43;46.63;97575.34;8253998;28;20253;-68
2021/06/30 17:36:51;;;;;;;2.23;0.30;;;;;;;21.42;47.51;97578.97;8254027;28;20245;-67
2021/06/30 17:40:54;;;;;;;0.40;0.40;;;;;;;21.36;47.35;97587.47;8253707;28;20208;-67
2021/06/30 17:44:57;;;;;;;0.30;0.30;;;;;;;20.95;48.01;97584.25;8253864;28;20207;-67
2021/06/30 17:49:00;;;;;;;0.70;0.50;;;;;;;21.32;47.33;97578.16;8254078;28;20392;-67
2021/06/30 17:53:04;;;;;;;0.30;0.30;;;;;;;21.05;48.28;97586.88;8253799;28;20230;-68
2021/06/30 17:57:07;;;;;;;3.47;0.57;;;;;;;21.09;48.33;97585.59;8253724;28;20203;-67
2021/06/30 18:01:10;;;;;;;0.80;0.50;;;;;;;21.10;48.28;97597.81;8253415;28;20451;-67
2021/06/30 18:05:15;;;;;;;1.93;0.37;;;;;;;21.01;48.40;97581.03;8253543;28;20427;-67
2021/06/30 18:09:20;;;;;;;1.13;0.37;;;;;;;21.01;48.09;97580.22;8253451;28;20215;-67
2021/06/30 18:13:23;;;;;;;1.07;0.50;;;;;;;20.82;48.70;97579.28;8252944;28;20236;-67
2021/06/30 18:17:26;;;;;;;1.57;0.40;;;;;;;20.84;48.90;97587.06;8252225;28;20477;-67
2021/06/30 18:21:29;;;;;;;0.37;0.37;;;;;;;21.08;48.61;97587.41;8252820;28;20390;-67
2021/06/30 18:25:34;;;;;;;0.33;0.33;;;;;;;21.01;49.27;97596.84;8252245;28;20212;-69
2021/06/30 18:29:38;;;;;;;2.97;0.50;;;;;;;20.92;49.34;97594.25;8252327;28;20243;-68
2021/06/30 18:33:41;;;;;;;0.40;0.40;;;;;;;21.00;49.56;97587.31;8252696;28;20230;-67
2021/06/30 18:37:45;;;;;;;0.50;0.40;;;;;;;20.93;49.58;97591.47;8252142;28;20203;-68
2021/06/30 18:41:49;;;;;;;3.37;0.67;;;;;;;20.99;49.72;97585.63;8252084;28;20485;-68
2021/06/30 18:45:52;;;;;;;10.37;0.73;;;;;;;21.01;49.95;97588.13;8251640;28;20272;-68
2021/06/30 18:49:55;;;;;;;2.23;0.60;;;;;;;21.05;50.21;97586.88;8251546;28;20202;-68
2021/06/30 18:53:57;;;;;;;0.87;0.50;;;;;;;20.84;50.41;97585.25;8251525;28;20236;-68
2021/06/30 18:58:02;;;;;;;1.17;0.43;;;;;;;20.83;51.09;97590.69;8251748;28;20214;-68
2021/06/30 19:02:05;;;;;;;5.00;0.53;;;;;;;20.84;51.22;97584.41;8251357;28;20208;-68
2021/06/30 19:06:08;;;;;;;0.60;0.60;;;;;;;20.71;51.38;97592.59;8251253;28;20538;-68
2021/06/30 19:10:13;;;;;;;1.00;0.40;;;;;;;20.69;51.33;97597.19;8251653;28;20238;-68
2021/06/30 19:14:17;;;;;;;0.70;0.60;;;;;;;20.74;51.52;97596.78;8251468;28;20462;-68
2021/06/30 19:18:20;;;;;;;1.00;0.50;;;;;;;20.65;51.51;97607.16;8250712;28;20210;-67
2021/06/30 19:22:23;;;;;;;2.73;0.50;;;;;;;20.58;51.94;97616.56;8250584;28;20206;-68
2021/06/30 19:26:26;;;;;;;3.13;0.70;;;;;;;20.59;52.26;97628.72;8250782;28;20210;-68